createdAt,value
2022-07-31T00:01:10.106Z,18.04
2022-07-31T00:03:59.412Z,18.12
2022-07-31T00:06:47.475Z,18.08
2022-07-31T00:09:52.371Z,18.06
2022-07-31T00:12:42.685Z,18.03
2022-07-31T00:15:30.944Z,18.02
2022-07-31T00:18:19.011Z,18.03
2022-07-31T00:21:08.312Z,18.02
2022-07-31T00:23:56.278Z,18.08
2022-07-31T00:26:44.496Z,18.11
2022-07-31T00:29:32.823Z,18.12
2022-07-31T00:32:20.863Z,18.17
2022-07-31T00:35:09.760Z,18.17
2022-07-31T00:38:26.170Z,18.22
2022-07-31T00:41:09.862Z,18.36
2022-07-31T00:43:57.889Z,18.48
2022-07-31T00:46:45.946Z,18.59
2022-07-31T00:49:37.732Z,18.67
2022-07-31T00:52:27.138Z,18.74
2022-07-31T00:55:16.491Z,18.78
2022-07-31T00:58:04.645Z,18.80
2022-07-31T01:00:52.808Z,18.81
2022-07-31T01:03:40.832Z,18.80
2022-07-31T01:06:29.074Z,18.80
2022-07-31T01:09:17.614Z,18.77
2022-07-31T01:12:14.046Z,18.73
2022-07-31T01:15:06.319Z,18.66
2022-07-31T01:17:56.259Z,18.54
2022-07-31T01:20:46.060Z,18.53
2022-07-31T01:23:55.156Z,18.52
2022-07-31T01:27:05.683Z,18.40
2022-07-31T01:30:00.294Z,18.25
2022-07-31T01:32:51.707Z,18.22
2022-07-31T01:35:44.332Z,18.18
2022-07-31T01:38:41.370Z,18.08
2022-07-31T01:41:37.207Z,17.95
2022-07-31T01:44:28.999Z,17.78
2022-07-31T01:47:21.219Z,17.63
2022-07-31T01:50:42.559Z,17.51
2022-07-31T01:53:22.313Z,17.33
2022-07-31T01:56:11.322Z,17.20
2022-07-31T01:59:01.487Z,17.07
2022-07-31T02:02:01.076Z,16.93
2022-07-31T02:04:52.670Z,16.81
2022-07-31T02:07:43.057Z,16.66
2022-07-31T02:10:32.755Z,16.64
2022-07-31T02:13:22.687Z,16.63
2022-07-31T02:16:10.819Z,16.66
2022-07-31T02:19:00.252Z,16.66
2022-07-31T02:21:49.679Z,16.73
2022-07-31T02:24:37.790Z,16.71
2022-07-31T02:27:53.720Z,16.90
2022-07-31T02:30:39.065Z,16.85
2022-07-31T02:33:30.219Z,16.84
2022-07-31T02:36:19.137Z,16.65
2022-07-31T02:39:09.862Z,16.56
2022-07-31T02:42:01.303Z,16.53
2022-07-31T02:44:51.235Z,16.45
2022-07-31T02:47:40.001Z,16.47
2022-07-31T02:50:32.523Z,16.49
2022-07-31T02:53:21.351Z,16.47
2022-07-31T02:56:16.563Z,16.24
2022-07-31T02:59:05.253Z,16.28
2022-07-31T03:02:08.693Z,16.29
2022-07-31T03:05:02.264Z,16.23
2022-07-31T03:07:50.567Z,16.10
2022-07-31T03:10:38.754Z,16.07
2022-07-31T03:13:30.647Z,16.02
2022-07-31T03:16:19.126Z,16.02
2022-07-31T03:19:09.789Z,15.98
2022-07-31T03:21:58.472Z,15.88
2022-07-31T03:24:47.237Z,15.84
2022-07-31T03:27:36.157Z,15.74
2022-07-31T03:30:26.093Z,15.79
2022-07-31T03:33:16.404Z,15.87
2022-07-31T03:36:04.754Z,15.87
2022-07-31T03:38:52.863Z,15.95
2022-07-31T03:41:57.277Z,16.05
2022-07-31T03:44:46.490Z,16.07
2022-07-31T03:47:35.993Z,16.13
2022-07-31T03:50:24.701Z,16.22
2022-07-31T03:53:14.347Z,16.28
2022-07-31T03:56:07.288Z,16.38
2022-07-31T03:58:55.719Z,16.56
2022-07-31T04:02:10.552Z,16.69
2022-07-31T04:05:20.568Z,16.82
2022-07-31T04:08:09.474Z,16.92
2022-07-31T04:10:57.699Z,16.97
2022-07-31T04:13:45.956Z,17.02
2022-07-31T04:16:34.048Z,17.12
2022-07-31T04:19:22.060Z,17.23
2022-07-31T04:22:12.246Z,17.27
2022-07-31T04:25:00.683Z,17.36
2022-07-31T04:30:58.242Z,17.45
2022-07-31T04:33:46.543Z,17.45
2022-07-31T04:36:36.552Z,17.53
2022-07-31T04:39:25.949Z,17.62
2022-07-31T04:42:14.207Z,17.67
2022-07-31T04:45:03.455Z,17.76
2022-07-31T04:47:51.714Z,17.78
2022-07-31T04:50:39.801Z,18.00
2022-07-31T04:53:27.887Z,18.13
2022-07-31T04:56:37.619Z,18.17
2022-07-31T04:59:57.884Z,18.33
2022-07-31T05:02:35.543Z,18.48
2022-07-31T05:05:23.620Z,18.53
2022-07-31T05:08:11.695Z,18.67
2022-07-31T05:11:22.558Z,18.63
2022-07-31T05:14:14.186Z,18.67
2022-07-31T05:17:02.178Z,18.68
2022-07-31T05:20:07.707Z,18.64
2022-07-31T05:23:06.496Z,18.61
2022-07-31T05:26:14.777Z,18.65
2022-07-31T05:29:03.912Z,18.65
2022-07-31T05:31:59.670Z,18.71
2022-07-31T05:34:48.720Z,18.45
2022-07-31T05:37:36.730Z,18.94
2022-07-31T05:40:26.936Z,19.05
2022-07-31T05:43:33.503Z,18.94
2022-07-31T05:46:25.518Z,19.18
2022-07-31T05:49:14.949Z,19.32
2022-07-31T05:52:06.381Z,19.39
2022-07-31T05:54:54.657Z,19.40
2022-07-31T05:57:48.709Z,19.49
2022-07-31T06:00:37.232Z,19.76
2022-07-31T06:03:27.758Z,19.89
2022-07-31T06:06:24.305Z,19.94
2022-07-31T06:09:13.475Z,19.97
2022-07-31T06:12:05.985Z,19.93
2022-07-31T06:14:54.363Z,19.98
2022-07-31T06:17:53.676Z,20.00
2022-07-31T06:20:49.420Z,20.17
2022-07-31T06:23:38.873Z,20.19
2022-07-31T06:26:38.584Z,20.39
2022-07-31T06:29:41.100Z,20.43
2022-07-31T06:32:31.100Z,20.50
2022-07-31T06:35:19.138Z,20.74
2022-07-31T06:38:37.734Z,20.87
2022-07-31T06:41:50.453Z,20.96
2022-07-31T06:44:50.456Z,21.00
2022-07-31T06:48:04.612Z,21.02
2022-07-31T06:51:29.178Z,21.18
2022-07-31T06:54:14.078Z,21.44
2022-07-31T06:57:02.197Z,21.46
2022-07-31T06:59:50.246Z,21.69
2022-07-31T07:02:38.376Z,21.82
2022-07-31T07:05:26.548Z,22.13
2022-07-31T07:08:16.913Z,22.43
2022-07-31T07:11:12.110Z,22.53
2022-07-31T07:14:01.344Z,22.80
2022-07-31T07:16:49.476Z,23.02
2022-07-31T07:19:41.284Z,23.07
2022-07-31T07:22:32.498Z,23.41
2022-07-31T07:25:23.067Z,23.64
2022-07-31T07:28:15.361Z,23.69
2022-07-31T07:31:19.744Z,23.61
2022-07-31T07:34:09.830Z,23.61
2022-07-31T07:36:57.893Z,23.58
2022-07-31T07:39:49.484Z,23.70
2022-07-31T07:42:37.600Z,23.64
2022-07-31T07:45:27.396Z,23.69
2022-07-31T07:48:15.430Z,23.94
2022-07-31T07:51:23.569Z,24.24
2022-07-31T07:54:28.230Z,25.01
2022-07-31T07:57:48.519Z,25.35
2022-07-31T08:01:07.022Z,25.17
2022-07-31T08:03:55.275Z,25.20
2022-07-31T08:06:43.555Z,25.12
2022-07-31T08:09:31.886Z,25.04
2022-07-31T08:12:42.606Z,24.52
2022-07-31T08:15:56.653Z,25.34
2022-07-31T08:18:54.765Z,25.54
2022-07-31T08:21:43.496Z,25.47
2022-07-31T08:24:31.668Z,25.25
2022-07-31T08:27:39.684Z,25.28
2022-07-31T08:30:29.229Z,25.36
2022-07-31T08:33:19.298Z,25.95
2022-07-31T08:36:16.256Z,26.53
2022-07-31T08:39:04.686Z,26.53
2022-07-31T08:42:09.949Z,26.53
2022-07-31T08:44:58.338Z,26.78
2022-07-31T08:47:50.969Z,27.32
2022-07-31T08:50:48.839Z,27.92
2022-07-31T08:54:03.541Z,28.37
2022-07-31T08:56:52.937Z,28.32
2022-07-31T08:59:41.986Z,27.97
2022-07-31T09:02:29.992Z,27.52
2022-07-31T09:05:43.466Z,27.73
2022-07-31T09:08:34.465Z,27.86
2022-07-31T09:11:25.239Z,27.73
2022-07-31T09:14:29.610Z,27.48
2022-07-31T09:17:17.746Z,27.24
2022-07-31T09:20:06.919Z,26.96
2022-07-31T09:23:06.024Z,26.88
2022-07-31T09:25:56.614Z,26.93
2022-07-31T09:28:48.742Z,26.75
2022-07-31T09:31:37.091Z,26.73
2022-07-31T09:34:47.621Z,26.73
2022-07-31T09:37:40.105Z,27.58
2022-07-31T09:40:57.568Z,28.72
2022-07-31T09:43:55.411Z,29.27
2022-07-31T09:46:48.070Z,29.41
2022-07-31T09:49:36.556Z,29.37
2022-07-31T09:52:26.420Z,29.52
2022-07-31T09:55:17.096Z,29.70
2022-07-31T09:58:07.158Z,29.45
2022-07-31T10:01:02.558Z,29.12
2022-07-31T10:03:53.872Z,28.48
2022-07-31T10:06:43.059Z,28.58
2022-07-31T10:09:34.260Z,28.55
2022-07-31T10:12:50.567Z,28.55
2022-07-31T10:15:40.699Z,28.51
2022-07-31T10:19:00.353Z,28.31
2022-07-31T10:22:05.485Z,28.35
2022-07-31T10:25:01.840Z,28.17
2022-07-31T10:27:51.222Z,28.32
2022-07-31T10:30:39.688Z,28.47
2022-07-31T10:33:43.679Z,28.76
2022-07-31T10:37:11.576Z,29.27
2022-07-31T10:40:27.503Z,29.34
2022-07-31T10:43:25.608Z,29.70
2022-07-31T10:46:31.792Z,29.84
2022-07-31T10:49:43.430Z,29.55
2022-07-31T10:53:00.316Z,29.35
2022-07-31T10:56:01.809Z,29.61
2022-07-31T10:59:00.023Z,30.11
2022-07-31T11:02:08.373Z,30.22
2022-07-31T11:05:11.731Z,31.06
2022-07-31T11:08:19.727Z,31.42
2022-07-31T11:11:13.465Z,31.27
2022-07-31T11:14:13.361Z,31.43
2022-07-31T11:17:07.090Z,30.87
2022-07-31T11:20:02.796Z,30.91
2022-07-31T11:22:55.626Z,30.87
2022-07-31T11:25:46.386Z,30.84
2022-07-31T11:28:35.320Z,31.05
2022-07-31T11:31:29.748Z,31.29
2022-07-31T11:34:17.806Z,32.15
2022-07-31T11:37:06.652Z,32.28
2022-07-31T11:39:56.261Z,32.25
2022-07-31T11:42:47.013Z,31.74
2022-07-31T11:45:47.055Z,30.87
2022-07-31T11:48:44.955Z,30.70
2022-07-31T11:51:33.639Z,30.64
2022-07-31T11:54:25.522Z,31.25
2022-07-31T11:57:13.556Z,32.04
2022-07-31T12:00:29.306Z,32.30
2022-07-31T12:03:19.546Z,32.07
2022-07-31T12:06:10.155Z,31.79
2022-07-31T12:08:58.421Z,31.61
2022-07-31T12:11:46.462Z,31.37
2022-07-31T12:14:36.212Z,30.93
2022-07-31T12:17:25.653Z,30.84
2022-07-31T12:20:25.337Z,30.60
2022-07-31T12:23:41.117Z,30.72
2022-07-31T12:26:31.131Z,30.78
2022-07-31T12:29:20.184Z,30.26
2022-07-31T12:32:08.805Z,30.27
2022-07-31T12:35:06.076Z,30.52
2022-07-31T12:37:54.149Z,30.89
2022-07-31T12:40:42.652Z,31.02
2022-07-31T12:43:30.828Z,30.97
2022-07-31T12:46:18.820Z,31.15
2022-07-31T12:49:08.307Z,31.51
2022-07-31T12:51:58.140Z,31.42
2022-07-31T12:54:46.436Z,31.92
2022-07-31T12:57:34.472Z,31.59
2022-07-31T13:00:27.978Z,31.62
2022-07-31T13:03:16.016Z,31.93
2022-07-31T13:06:04.092Z,32.19
2022-07-31T13:08:53.869Z,32.34
2022-07-31T13:11:48.158Z,31.95
2022-07-31T13:14:36.805Z,31.45
2022-07-31T13:17:24.815Z,31.84
2022-07-31T13:20:16.617Z,31.93
2022-07-31T13:23:05.183Z,32.29
2022-07-31T13:25:54.801Z,32.74
2022-07-31T13:28:42.896Z,33.08
2022-07-31T13:31:30.973Z,33.35
2022-07-31T13:34:18.987Z,33.42
2022-07-31T13:37:07.267Z,33.59
2022-07-31T13:39:55.513Z,33.70
2022-07-31T13:42:44.834Z,33.30
2022-07-31T13:45:32.825Z,32.78
2022-07-31T13:48:20.831Z,32.39
2022-07-31T13:51:08.844Z,32.28
2022-07-31T13:53:57.040Z,31.94
2022-07-31T13:56:45.057Z,31.73
2022-07-31T13:59:34.656Z,32.17
2022-07-31T14:02:22.706Z,32.58
2022-07-31T14:05:11.156Z,32.48
2022-07-31T14:08:32.661Z,32.20
2022-07-31T14:11:13.813Z,31.88
2022-07-31T14:14:03.052Z,31.82
2022-07-31T14:16:52.385Z,32.12
2022-07-31T14:19:44.617Z,32.42
2022-07-31T14:22:32.760Z,33.27
2022-07-31T14:25:20.882Z,33.64
2022-07-31T14:28:10.625Z,33.76
2022-07-31T14:30:58.642Z,33.55
2022-07-31T14:33:48.108Z,32.72
2022-07-31T14:36:36.107Z,32.08
2022-07-31T14:39:24.126Z,31.89
2022-07-31T14:42:12.640Z,32.00
2022-07-31T14:45:02.883Z,32.75
2022-07-31T14:47:51.374Z,33.64
2022-07-31T14:50:40.860Z,33.58
2022-07-31T14:53:28.991Z,33.78
2022-07-31T14:56:30.682Z,33.90
2022-07-31T14:59:25.099Z,34.52
2022-07-31T15:02:13.165Z,34.58
2022-07-31T15:06:39.869Z,34.77
2022-07-31T15:08:10.605Z,34.86
2022-07-31T15:10:58.660Z,34.61
2022-07-31T15:13:46.688Z,34.73
2022-07-31T15:16:34.775Z,34.15
2022-07-31T15:19:22.802Z,33.35
2022-07-31T15:22:17.138Z,33.67
2022-07-31T15:25:08.639Z,34.20
2022-07-31T15:27:56.835Z,34.11
2022-07-31T15:30:44.926Z,33.57
2022-07-31T15:33:33.342Z,33.14
2022-07-31T15:36:24.493Z,33.46
2022-07-31T15:39:12.502Z,33.49
2022-07-31T15:42:02.599Z,33.99
2022-07-31T15:44:50.614Z,33.85
2022-07-31T15:47:39.305Z,34.13
2022-07-31T15:50:27.400Z,34.26
2022-07-31T15:53:15.409Z,34.34
2022-07-31T15:56:03.520Z,34.28
2022-07-31T15:58:54.775Z,34.74
2022-07-31T16:01:42.765Z,34.35
2022-07-31T16:04:31.588Z,34.12
2022-07-31T16:08:29.638Z,34.04
2022-07-31T16:10:28.230Z,33.84
2022-07-31T16:13:16.263Z,33.46
2022-07-31T16:16:06.329Z,33.58
2022-07-31T16:18:54.378Z,33.44
2022-07-31T16:21:42.429Z,33.41
2022-07-31T16:24:30.508Z,33.59
2022-07-31T16:27:18.530Z,33.64
2022-07-31T16:30:08.410Z,33.55
2022-07-31T16:32:57.809Z,33.71
2022-07-31T16:35:45.806Z,33.69
2022-07-31T16:38:34.254Z,33.85
2022-07-31T16:41:22.759Z,33.70
2022-07-31T16:44:10.753Z,33.77
2022-07-31T16:46:58.745Z,33.83
2022-07-31T16:49:48.636Z,34.33
2022-07-31T16:52:36.835Z,34.13
2022-07-31T16:55:46.134Z,33.76
2022-07-31T16:58:35.682Z,36.31
2022-07-31T17:01:57.855Z,37.98
2022-07-31T17:04:31.879Z,38.97
2022-07-31T17:07:21.217Z,38.68
2022-07-31T17:10:09.838Z,38.31
2022-07-31T17:12:57.825Z,37.75
2022-07-31T17:15:45.836Z,35.15
2022-07-31T17:18:34.056Z,34.40
2022-07-31T17:21:23.738Z,33.46
2022-07-31T17:24:20.225Z,32.43
2022-07-31T17:27:10.738Z,31.73
2022-07-31T17:29:58.888Z,31.55
2022-07-31T17:32:46.913Z,31.35
2022-07-31T17:35:35.249Z,30.90
2022-07-31T17:38:23.261Z,30.67
2022-07-31T17:41:25.114Z,30.43
2022-07-31T17:44:14.692Z,30.20
2022-07-31T17:47:03.753Z,30.10
2022-07-31T17:49:54.136Z,29.86
2022-07-31T17:52:42.172Z,29.74
2022-07-31T17:55:30.238Z,29.68
2022-07-31T17:58:20.114Z,29.57
2022-07-31T18:01:08.367Z,29.47
2022-07-31T18:03:56.457Z,29.38
2022-07-31T18:06:45.214Z,29.31
2022-07-31T18:09:35.101Z,29.22
2022-07-31T18:12:24.354Z,29.09
2022-07-31T18:15:14.567Z,28.94
2022-07-31T18:18:02.578Z,28.87
2022-07-31T18:20:50.580Z,28.79
2022-07-31T18:23:43.607Z,28.73
2022-07-31T18:26:37.205Z,28.54
2022-07-31T18:29:25.349Z,28.48
2022-07-31T18:32:14.704Z,28.35
2022-07-31T18:35:03.202Z,28.23
2022-07-31T18:37:52.590Z,28.03
2022-07-31T18:40:40.643Z,27.80
2022-07-31T18:43:28.836Z,27.56
2022-07-31T18:46:16.926Z,27.32
2022-07-31T18:49:07.656Z,27.09
2022-07-31T18:52:15.597Z,26.81
2022-07-31T18:55:03.723Z,26.54
2022-07-31T18:57:51.798Z,26.40
2022-07-31T19:00:40.122Z,26.19
2022-07-31T19:03:29.871Z,26.03
2022-07-31T19:06:19.467Z,25.80
2022-07-31T19:09:07.447Z,25.61
2022-07-31T19:11:58.782Z,25.38
2022-07-31T19:14:47.054Z,25.14
2022-07-31T19:17:44.045Z,24.85
2022-07-31T19:20:40.433Z,24.68
2022-07-31T19:23:43.670Z,24.53
2022-07-31T19:26:31.775Z,24.40
2022-07-31T19:29:20.658Z,24.22
2022-07-31T19:32:08.987Z,24.10
2022-07-31T19:34:57.180Z,23.89
2022-07-31T19:37:45.230Z,23.68
2022-07-31T19:40:34.630Z,23.48
2022-07-31T19:43:22.708Z,23.32
2022-07-31T19:46:12.746Z,23.13
2022-07-31T19:49:02.766Z,23.06
2022-07-31T19:51:50.818Z,23.01
2022-07-31T19:54:39.755Z,22.91
2022-07-31T19:57:29.126Z,22.90
2022-07-31T20:00:17.339Z,22.81
2022-07-31T20:03:05.352Z,22.68
2022-07-31T20:05:53.460Z,22.63
2022-07-31T20:08:41.477Z,22.59
2022-07-31T20:11:29.542Z,22.47
2022-07-31T20:14:18.943Z,22.40
2022-07-31T20:17:07.004Z,22.33
2022-07-31T20:20:14.737Z,22.30
2022-07-31T20:23:05.410Z,21.26
2022-07-31T20:25:53.929Z,22.13
2022-07-31T20:28:42.489Z,22.04
2022-07-31T20:31:31.949Z,21.93
2022-07-31T20:34:20.030Z,21.78
2022-07-31T20:37:08.084Z,21.66
2022-07-31T20:39:56.124Z,21.59
2022-07-31T20:42:44.315Z,21.49
2022-07-31T20:45:32.601Z,21.36
2022-07-31T20:48:32.414Z,21.27
2022-07-31T20:51:23.165Z,21.20
2022-07-31T20:54:11.222Z,21.02
2022-07-31T20:56:59.271Z,21.03
2022-07-31T20:59:47.291Z,21.03
2022-07-31T21:02:35.476Z,21.00
2022-07-31T21:05:29.181Z,21.00
2022-07-31T21:08:17.802Z,20.94
2022-07-31T21:11:05.983Z,20.81
2022-07-31T21:13:53.954Z,20.71
2022-07-31T21:16:42.431Z,20.64
2022-07-31T21:19:30.397Z,20.56
2022-07-31T21:22:19.752Z,20.50
2022-07-31T21:25:10.223Z,20.45
2022-07-31T21:27:58.463Z,20.41
2022-07-31T21:30:46.841Z,20.27
2022-07-31T21:33:35.252Z,20.24
2022-07-31T21:36:23.817Z,20.20
2022-07-31T21:39:18.717Z,20.14
2022-07-31T21:42:08.479Z,20.03
2022-07-31T21:44:57.108Z,20.05
2022-07-31T21:47:53.065Z,20.02
2022-07-31T21:50:43.994Z,20.02
2022-07-31T21:53:31.977Z,20.09
2022-07-31T21:56:21.391Z,20.12
2022-07-31T21:59:09.397Z,19.98
2022-07-31T22:02:01.991Z,20.09
2022-07-31T22:05:08.118Z,20.11
2022-07-31T22:07:56.196Z,20.06
2022-07-31T22:10:44.615Z,20.07
2022-07-31T22:13:34.004Z,20.07
2022-07-31T22:16:22.097Z,20.07
2022-07-31T22:19:11.739Z,20.02
2022-07-31T22:22:01.038Z,19.92
2022-07-31T22:24:49.614Z,19.93
2022-07-31T22:27:56.451Z,19.86
2022-07-31T22:30:46.682Z,19.81
2022-07-31T22:33:34.840Z,19.76
2022-07-31T22:36:25.015Z,19.58
2022-07-31T22:39:13.241Z,19.61
2022-07-31T22:42:01.467Z,19.58
2022-07-31T22:44:49.789Z,19.50
2022-07-31T22:47:39.878Z,19.51
2022-07-31T22:50:28.003Z,19.49
2022-07-31T22:53:17.677Z,19.49
2022-07-31T22:56:05.882Z,19.48
2022-07-31T22:58:54.724Z,19.52
2022-07-31T23:01:42.794Z,19.46
2022-07-31T23:04:32.186Z,19.42
2022-07-31T23:07:20.192Z,19.40
2022-07-31T23:10:11.069Z,19.38
2022-07-31T23:12:59.161Z,19.36
2022-07-31T23:15:47.157Z,19.36
2022-07-31T23:18:35.208Z,19.29
2022-07-31T23:21:25.250Z,19.20
2022-07-31T23:24:13.307Z,19.19
2022-07-31T23:27:08.017Z,19.16
2022-07-31T23:29:56.300Z,19.04
2022-07-31T23:32:44.350Z,19.03
2022-07-31T23:35:32.332Z,18.97
2022-07-31T23:38:21.754Z,18.91
2022-07-31T23:41:09.995Z,18.91
2022-07-31T23:43:57.045Z,18.86
2022-07-31T23:46:45.250Z,18.90
2022-07-31T23:49:37.576Z,18.98
2022-07-31T23:52:25.690Z,18.97
2022-07-31T23:55:15.096Z,19.04
2022-07-31T23:58:03.184Z,19.08
